KFCM

Flying Cloud Airport

Minneapolis, Minnesota, USA
METAR KFCM 181253Z 19007KT 10SM CLR 01/M04 A2990 RMK AO2 SLP136 T00061044
Observed Flight Rules
Dec-18 @ 12:53 UTC (50 minutes ago) Visual Flight Rules
Wind Visibility Clouds
190° at 7 knots 10 miles
  • Clear skies
Temperatures Readings
Current 1°C / 34°F
Dewpoint -4°C / 25°F
Humidity 70%
Altimeter 29.9" Hg
Pressure 1013.6 hPa
Elevation 280
METAR KFCM 181253Z 19007KT 10SM CLR 01/M04 A2990 RMK AO2 SLP136 T00061044
Observed Flight Rules
Dec-18 @ 12:53 UTC
(50 minutes ago)
VFR
Wind Visibility
190° at 7 knots 10 miles
Clouds
  • Clear skies
Temperature Dewpoint
1°C / 34°F -4°C / 25°F
Humidity Altimeter Pressure
70% 29.9" Hg 1013.6 hPa